createdAt,value
2023-01-30T00:00:29.865Z,100784.44
2023-01-30T00:03:01.525Z,100773.28
2023-01-30T00:05:33.026Z,100779.69
2023-01-30T00:08:04.519Z,100768.56
2023-01-30T00:10:36.018Z,100756.69
2023-01-30T00:13:07.536Z,100750.13
2023-01-30T00:15:39.241Z,100745.53
2023-01-30T00:18:10.991Z,100725.88
2023-01-30T00:20:42.530Z,100734.56
2023-01-30T00:23:14.496Z,100722.00
2023-01-30T00:25:46.279Z,100714.28
2023-01-30T00:28:18.135Z,100715.94
2023-01-30T00:30:50.794Z,100694.44
2023-01-30T00:33:22.305Z,100678.03
2023-01-30T00:35:54.242Z,100672.78
2023-01-30T00:38:25.797Z,100647.38
2023-01-30T00:40:57.657Z,100635.72
2023-01-30T00:43:47.980Z,100625.06
2023-01-30T00:46:38.418Z,100614.22
2023-01-30T00:49:09.974Z,100608.00
2023-01-30T00:51:41.854Z,100601.13
2023-01-30T00:54:13.358Z,100568.47
2023-01-30T00:56:45.232Z,100560.91
2023-01-30T00:59:16.764Z,100576.97
2023-01-30T01:01:48.696Z,100558.47
2023-01-30T01:04:20.184Z,100544.34
2023-01-30T01:06:52.078Z,100542.06
2023-01-30T01:09:23.577Z,100561.75
2023-01-30T01:11:55.567Z,100559.97
2023-01-30T01:14:27.063Z,100558.16
2023-01-30T01:16:58.867Z,100545.53
2023-01-30T01:19:30.349Z,100546.69
2023-01-30T01:22:02.189Z,100525.38
2023-01-30T01:24:33.670Z,100494.22
2023-01-30T01:27:05.443Z,100475.03
2023-01-30T01:29:36.934Z,100488.16
2023-01-30T01:32:08.897Z,100487.97
2023-01-30T01:34:40.455Z,100482.91
2023-01-30T01:37:12.449Z,100487.81
2023-01-30T01:40:02.820Z,100495.19
2023-01-30T01:42:34.601Z,100483.06
2023-01-30T01:45:06.223Z,100490.75
2023-01-30T01:47:38.029Z,100512.91
2023-01-30T01:50:09.526Z,100503.41
2023-01-30T01:52:41.334Z,100490.75
2023-01-30T01:55:12.820Z,100507.66
2023-01-30T01:57:44.642Z,100491.31
2023-01-30T02:00:16.264Z,100482.91
2023-01-30T02:02:48.152Z,100481.75
2023-01-30T02:05:20.078Z,100467.81
2023-01-30T02:07:52.186Z,100447.50
2023-01-30T02:10:23.739Z,100438.28
2023-01-30T02:12:55.582Z,100427.97
2023-01-30T02:15:27.107Z,100422.06
2023-01-30T02:17:58.986Z,100419.09
2023-01-30T02:20:30.504Z,100396.31
2023-01-30T02:23:02.000Z,100400.75
2023-01-30T02:25:33.506Z,100371.88
2023-01-30T02:28:05.009Z,100375.50
2023-01-30T02:30:36.545Z,100364.00
2023-01-30T02:33:08.515Z,100367.44
2023-01-30T02:35:40.046Z,100372.53
2023-01-30T02:38:11.904Z,100359.75
2023-01-30T02:40:43.418Z,100368.44
2023-01-30T02:43:18.442Z,100374.84
2023-01-30T02:45:49.965Z,100347.13
2023-01-30T02:48:21.731Z,100353.88
2023-01-30T02:50:53.970Z,100332.84
2023-01-30T02:53:25.827Z,100328.59
2023-01-30T02:55:57.329Z,100307.31
2023-01-30T02:58:29.308Z,100311.25
2023-01-30T03:01:03.807Z,100333.69
2023-01-30T03:03:35.949Z,100291.53
2023-01-30T03:06:07.437Z,100295.66
2023-01-30T03:08:39.370Z,100279.94
2023-01-30T03:11:10.902Z,100285.19
2023-01-30T03:13:42.779Z,100259.94
2023-01-30T03:16:14.290Z,100276.97
2023-01-30T03:18:46.188Z,100264.19
2023-01-30T03:21:17.660Z,100261.88
2023-01-30T03:23:49.472Z,100243.00
2023-01-30T03:26:21.124Z,100243.16
2023-01-30T03:28:53.024Z,100238.41
2023-01-30T03:31:24.639Z,100236.09
2023-01-30T03:33:56.523Z,100236.09
2023-01-30T03:36:28.101Z,100240.03
2023-01-30T03:38:59.975Z,100235.63
2023-01-30T03:41:31.507Z,100223.63
2023-01-30T03:44:03.163Z,100228.06
2023-01-30T03:46:34.667Z,100234.75
2023-01-30T03:49:06.482Z,100214.72
2023-01-30T03:51:37.967Z,100224.72
2023-01-30T03:54:09.538Z,100220.06
2023-01-30T03:56:41.042Z,100212.53
2023-01-30T03:59:12.909Z,100202.91
2023-01-30T04:01:44.448Z,100207.97
2023-01-30T04:04:16.449Z,100200.75
2023-01-30T04:06:47.986Z,100184.66
2023-01-30T04:09:19.825Z,100178.94
2023-01-30T04:11:51.644Z,100171.34
2023-01-30T04:14:23.145Z,100163.47
2023-01-30T04:16:54.862Z,100175.91
2023-01-30T04:19:26.457Z,100162.13
2023-01-30T04:21:58.440Z,99889.13
2023-01-30T04:24:30.272Z,100153.09
2023-01-30T04:27:01.751Z,100160.63
2023-01-30T04:29:33.614Z,100143.69
2023-01-30T04:32:05.126Z,100149.25
2023-01-30T04:34:36.999Z,100148.53
2023-01-30T04:37:08.471Z,100143.13
2023-01-30T04:39:40.457Z,100147.50
2023-01-30T04:42:11.966Z,100135.81
2023-01-30T04:44:44.046Z,100141.22
2023-01-30T04:47:15.533Z,100139.88
2023-01-30T04:49:47.056Z,100129.38
2023-01-30T04:52:18.553Z,100121.31
2023-01-30T04:54:50.339Z,100119.03
2023-01-30T04:57:21.826Z,100111.44
2023-01-30T04:59:53.527Z,100113.78
2023-01-30T05:02:25.065Z,100100.56
2023-01-30T05:04:56.989Z,100101.00
2023-01-30T05:07:28.513Z,100098.72
2023-01-30T05:10:00.494Z,100087.72
2023-01-30T05:12:31.997Z,100087.44
2023-01-30T05:15:03.714Z,100082.06
2023-01-30T05:17:35.192Z,100075.06
2023-01-30T05:20:07.194Z,100075.13
2023-01-30T05:22:38.663Z,100071.88
2023-01-30T05:25:10.505Z,100065.00
2023-01-30T05:27:42.017Z,100074.88
2023-01-30T05:30:13.848Z,100067.22
2023-01-30T05:32:45.618Z,100070.38
2023-01-30T05:35:17.369Z,100070.19
2023-01-30T05:37:49.355Z,100058.88
2023-01-30T05:40:20.850Z,100043.38
2023-01-30T05:42:52.660Z,100033.69
2023-01-30T05:45:24.148Z,100035.31
2023-01-30T05:48:00.614Z,100028.63
2023-01-30T05:50:32.754Z,100032.69
2023-01-30T05:53:04.536Z,100038.06
2023-01-30T05:55:36.009Z,100022.84
2023-01-30T05:58:07.802Z,100017.75
2023-01-30T06:00:39.314Z,100013.63
2023-01-30T06:03:10.831Z,100004.41
2023-01-30T06:05:42.342Z,100004.59
2023-01-30T06:08:14.286Z,100000.16
2023-01-30T06:10:45.780Z,100005.69
2023-01-30T06:13:17.498Z,99986.78
2023-01-30T06:15:49.020Z,99995.47
2023-01-30T06:18:20.579Z,99996.94
2023-01-30T06:20:52.084Z,99995.72
2023-01-30T06:23:23.942Z,99987.03
2023-01-30T06:25:55.790Z,99986.50
2023-01-30T06:28:27.788Z,99999.09
2023-01-30T06:30:59.422Z,99991.69
2023-01-30T06:33:31.521Z,99992.84
2023-01-30T06:36:03.041Z,99994.13
2023-01-30T06:38:34.971Z,100002.81
2023-01-30T06:41:06.515Z,100009.00
2023-01-30T06:43:38.084Z,100001.09
2023-01-30T06:46:09.902Z,100007.81
2023-01-30T06:48:41.757Z,100002.38
2023-01-30T06:51:13.342Z,100005.97
2023-01-30T06:53:45.099Z,99998.88
2023-01-30T06:56:16.646Z,100000.81
2023-01-30T06:58:48.581Z,100000.16
2023-01-30T07:01:21.281Z,99995.00
2023-01-30T07:03:52.849Z,99990.56
2023-01-30T07:06:24.452Z,99968.81
2023-01-30T07:08:59.548Z,99980.16
2023-01-30T07:11:31.210Z,99973.81
2023-01-30T07:14:03.025Z,99996.91
2023-01-30T07:16:34.564Z,99976.34
2023-01-30T07:19:06.401Z,99977.63
2023-01-30T07:21:37.896Z,99975.91
2023-01-30T07:24:09.569Z,99964.84
2023-01-30T07:26:41.169Z,99962.84
2023-01-30T07:29:12.712Z,99957.28
2023-01-30T07:31:44.345Z,99948.66
2023-01-30T07:34:16.257Z,99956.19
2023-01-30T07:36:47.811Z,99968.38
2023-01-30T07:39:19.599Z,99968.63
2023-01-30T07:41:51.151Z,99953.84
2023-01-30T07:44:23.140Z,99954.22
2023-01-30T07:46:54.700Z,99968.06
2023-01-30T07:49:26.686Z,99973.78
2023-01-30T07:51:58.214Z,99973.59
2023-01-30T07:54:30.145Z,99971.16
2023-01-30T07:57:01.718Z,99973.78
2023-01-30T07:59:33.354Z,99972.78
2023-01-30T08:02:04.835Z,99975.03
2023-01-30T08:04:36.702Z,99986.38
2023-01-30T08:07:08.204Z,99968.16
2023-01-30T08:09:40.010Z,99967.78
2023-01-30T08:12:11.516Z,99969.47
2023-01-30T08:14:43.383Z,99969.91
2023-01-30T08:17:14.864Z,99978.34
2023-01-30T08:19:46.387Z,99972.34
2023-01-30T08:22:18.020Z,99978.53
2023-01-30T08:24:49.509Z,99978.34
2023-01-30T08:27:21.356Z,99975.97
2023-01-30T08:29:52.938Z,99976.59
2023-01-30T08:32:24.470Z,99967.13
2023-01-30T08:34:56.370Z,99951.03
2023-01-30T08:37:27.895Z,99962.56
2023-01-30T08:40:00.046Z,99945.25
2023-01-30T08:42:31.554Z,99957.53
2023-01-30T08:45:03.325Z,99968.94
2023-01-30T08:47:35.547Z,99955.44
2023-01-30T08:50:07.092Z,99956.50
2023-01-30T08:52:38.656Z,99956.19
2023-01-30T08:55:10.569Z,99947.38
2023-01-30T08:57:42.149Z,99948.34
2023-01-30T09:00:14.101Z,99941.09
2023-01-30T09:02:48.833Z,99953.56
2023-01-30T09:05:20.838Z,99958.66
2023-01-30T09:07:52.355Z,99949.75
2023-01-30T09:10:25.040Z,99963.78
2023-01-30T09:12:58.535Z,99963.78
2023-01-30T09:15:30.338Z,99959.78
2023-01-30T09:18:01.904Z,99957.97
2023-01-30T09:20:33.860Z,99958.59
2023-01-30T09:23:05.362Z,99950.28
2023-01-30T09:25:38.211Z,99956.38
2023-01-30T09:28:09.714Z,99964.72
2023-01-30T09:30:41.583Z,99964.34
2023-01-30T09:33:16.749Z,99977.97
2023-01-30T09:35:48.289Z,99967.00
2023-01-30T09:38:20.286Z,99968.81
2023-01-30T09:40:51.837Z,99968.63
2023-01-30T09:43:23.702Z,99975.53
2023-01-30T09:45:55.286Z,99967.41
2023-01-30T09:48:27.269Z,99971.69
2023-01-30T09:51:00.382Z,99960.13
2023-01-30T09:53:32.436Z,99964.19
2023-01-30T09:56:03.966Z,99966.19
2023-01-30T09:58:35.859Z,99964.38
2023-01-30T10:01:07.504Z,99961.91
2023-01-30T10:03:39.369Z,99958.03
2023-01-30T10:06:10.988Z,99965.38
2023-01-30T10:08:42.821Z,99957.84
2023-01-30T10:11:14.330Z,99962.31
2023-01-30T10:13:46.201Z,99957.25
2023-01-30T10:16:18.623Z,99963.78
2023-01-30T10:18:50.520Z,99948.31
2023-01-30T10:21:22.031Z,99949.50
2023-01-30T10:23:53.925Z,99960.25
2023-01-30T10:26:25.580Z,99957.41
2023-01-30T10:29:06.804Z,99962.69
2023-01-30T10:31:38.769Z,99952.28
2023-01-30T10:34:10.830Z,99958.94
2023-01-30T10:36:42.359Z,99953.59
2023-01-30T10:39:14.136Z,99953.91
2023-01-30T10:41:45.692Z,99940.25
2023-01-30T10:44:19.347Z,99957.34
2023-01-30T10:46:50.985Z,99948.16
2023-01-30T10:49:23.956Z,99951.09
2023-01-30T10:51:55.465Z,99949.56
2023-01-30T10:54:27.324Z,99948.03
2023-01-30T10:56:59.022Z,99938.22
2023-01-30T10:59:30.859Z,99944.00
2023-01-30T11:02:02.508Z,99944.25
2023-01-30T11:04:34.282Z,99945.34
2023-01-30T11:07:05.805Z,99938.13
2023-01-30T11:09:37.651Z,99941.19
2023-01-30T11:12:09.291Z,99932.03
2023-01-30T11:14:41.997Z,99925.56
2023-01-30T11:17:13.541Z,99933.09
2023-01-30T11:19:45.589Z,99941.63
2023-01-30T11:22:17.099Z,99919.25
2023-01-30T11:24:48.974Z,99925.13
2023-01-30T11:27:20.499Z,99911.00
2023-01-30T11:29:52.620Z,99914.91
2023-01-30T11:32:24.226Z,99892.63
2023-01-30T11:34:56.136Z,99884.38
2023-01-30T11:37:27.678Z,99880.72
2023-01-30T11:39:59.781Z,99876.41
2023-01-30T11:42:31.280Z,99855.13
2023-01-30T11:45:16.659Z,99862.25
2023-01-30T11:47:57.857Z,99851.97
2023-01-30T11:50:34.081Z,99855.00
2023-01-30T11:53:08.552Z,99850.75
2023-01-30T11:55:44.963Z,99838.31
2023-01-30T11:58:21.405Z,99850.06
2023-01-30T12:00:53.265Z,99842.75
2023-01-30T12:03:25.673Z,99825.78
2023-01-30T12:05:57.657Z,99817.25
2023-01-30T12:08:41.037Z,99807.06
2023-01-30T12:11:13.666Z,99814.84
2023-01-30T12:13:45.688Z,99812.25
2023-01-30T12:16:17.639Z,99814.94
2023-01-30T12:18:49.229Z,99832.00
2023-01-30T12:21:22.021Z,99831.09
2023-01-30T12:23:53.574Z,99818.88
2023-01-30T12:26:25.690Z,99826.13
2023-01-30T12:28:57.255Z,99820.19
2023-01-30T12:31:29.231Z,99819.47
2023-01-30T12:34:00.749Z,99805.13
2023-01-30T12:36:32.517Z,99809.69
2023-01-30T12:39:04.038Z,99812.91
2023-01-30T12:41:35.891Z,99801.00
2023-01-30T12:44:07.491Z,99802.75
2023-01-30T12:46:39.270Z,99795.63
2023-01-30T12:49:12.012Z,99805.88
2023-01-30T12:51:43.910Z,99788.03
2023-01-30T12:54:15.487Z,99791.72
2023-01-30T12:56:48.419Z,99790.53
2023-01-30T12:59:20.860Z,99776.53
2023-01-30T13:01:52.791Z,99785.78
2023-01-30T13:04:24.362Z,99790.91
2023-01-30T13:06:56.265Z,99789.88
2023-01-30T13:09:27.785Z,99798.94
2023-01-30T13:11:59.663Z,99789.91
2023-01-30T13:14:31.229Z,99804.31
2023-01-30T13:17:03.188Z,99784.75
2023-01-30T13:19:40.873Z,99782.06
2023-01-30T13:22:13.222Z,99793.06
2023-01-30T13:24:45.065Z,99788.22
2023-01-30T13:27:16.740Z,99783.41
2023-01-30T13:29:48.297Z,99777.47
2023-01-30T13:32:19.849Z,99789.69
2023-01-30T13:34:51.695Z,99782.06
2023-01-30T13:37:23.203Z,99768.88
2023-01-30T13:39:55.134Z,99760.56
2023-01-30T13:42:27.428Z,99771.72
2023-01-30T13:44:59.291Z,99765.31
2023-01-30T13:47:31.108Z,99781.28
2023-01-30T13:50:02.616Z,99768.34
2023-01-30T13:52:34.176Z,99781.91
2023-01-30T13:55:06.163Z,99777.03
2023-01-30T13:57:37.784Z,99771.06
2023-01-30T14:00:10.126Z,99765.34
2023-01-30T14:02:41.694Z,99757.22
2023-01-30T14:05:13.584Z,99749.75
2023-01-30T14:07:45.240Z,99769.47
2023-01-30T14:10:17.185Z,99737.00
2023-01-30T14:12:48.978Z,99776.41
2023-01-30T14:15:21.520Z,99810.94
2023-01-30T14:17:53.251Z,99815.03
2023-01-30T14:20:24.959Z,99830.22
2023-01-30T14:22:56.529Z,99815.78
2023-01-30T14:25:28.441Z,99825.47
2023-01-30T14:28:00.085Z,99857.28
2023-01-30T14:30:31.814Z,99856.97
2023-01-30T14:33:03.409Z,99871.53
2023-01-30T14:35:34.977Z,99885.94
2023-01-30T14:38:06.531Z,99871.72
2023-01-30T14:40:38.185Z,99877.13
2023-01-30T14:43:09.711Z,99887.91
2023-01-30T14:45:41.581Z,99899.06
2023-01-30T14:48:13.154Z,99910.09
2023-01-30T14:50:45.172Z,99917.97
2023-01-30T14:53:16.723Z,99742.53
2023-01-30T14:55:48.576Z,99915.44
2023-01-30T14:58:20.115Z,99922.13
2023-01-30T15:00:51.965Z,99928.78
2023-01-30T15:03:23.522Z,99936.72
2023-01-30T15:05:55.539Z,99939.41
2023-01-30T15:08:27.057Z,99932.06
2023-01-30T15:10:59.165Z,99938.16
2023-01-30T15:13:30.705Z,99941.41
2023-01-30T15:16:02.533Z,99948.94
2023-01-30T15:18:34.065Z,99941.88
2023-01-30T15:21:05.806Z,99939.84
2023-01-30T15:23:37.408Z,99944.53
2023-01-30T15:26:09.265Z,99929.69
2023-01-30T15:28:40.777Z,99918.94
2023-01-30T15:31:12.721Z,99923.97
2023-01-30T15:33:44.301Z,99927.06
2023-01-30T15:36:15.833Z,99934.38
2023-01-30T15:38:47.342Z,99944.72
2023-01-30T15:41:19.122Z,99955.50
2023-01-30T15:43:50.654Z,99946.16
2023-01-30T15:46:22.602Z,99947.38
2023-01-30T15:48:54.128Z,99954.69
2023-01-30T15:51:27.386Z,99950.22
2023-01-30T15:53:58.944Z,99961.25
2023-01-30T15:56:30.763Z,99970.41
2023-01-30T15:59:02.376Z,99969.19
2023-01-30T16:01:34.230Z,99969.81
2023-01-30T16:04:08.066Z,99976.56
2023-01-30T16:06:39.857Z,99968.25
2023-01-30T16:09:11.482Z,99972.72
2023-01-30T16:11:43.378Z,99980.41
2023-01-30T16:14:14.902Z,99973.50
2023-01-30T16:16:46.830Z,99978.56
2023-01-30T16:19:18.424Z,99972.50
2023-01-30T16:21:50.207Z,99982.06
2023-01-30T16:24:21.834Z,99992.22
2023-01-30T16:26:53.752Z,99988.38
2023-01-30T16:29:25.271Z,100001.75
2023-01-30T16:31:57.250Z,99999.94
2023-01-30T16:34:28.878Z,100009.28
2023-01-30T16:37:00.844Z,100013.31
2023-01-30T16:39:32.531Z,100010.06
2023-01-30T16:42:05.139Z,100010.16
2023-01-30T16:44:36.660Z,99999.13
2023-01-30T16:47:08.440Z,100016.97
2023-01-30T16:49:39.962Z,100026.91
2023-01-30T16:52:11.784Z,100038.06
2023-01-30T16:54:43.291Z,100039.88
2023-01-30T16:57:15.106Z,100044.19
2023-01-30T16:59:46.603Z,100045.97
2023-01-30T17:02:18.449Z,100065.44
2023-01-30T17:04:49.961Z,100059.31
2023-01-30T17:07:22.026Z,100080.84
2023-01-30T17:09:53.583Z,100081.44
2023-01-30T17:12:25.091Z,100078.16
2023-01-30T17:14:56.586Z,100099.03
2023-01-30T17:17:28.489Z,100085.41
2023-01-30T17:20:00.001Z,100097.00
2023-01-30T17:22:31.826Z,100097.97
2023-01-30T17:25:03.353Z,100110.97
2023-01-30T17:27:35.243Z,100119.50
2023-01-30T17:30:06.745Z,100118.88
2023-01-30T17:32:38.639Z,100135.75
2023-01-30T17:35:10.149Z,100136.56
2023-01-30T17:37:45.289Z,100139.59
2023-01-30T17:40:18.490Z,100140.25
2023-01-30T17:42:50.252Z,100142.94
2023-01-30T17:45:21.800Z,100153.94
2023-01-30T17:47:53.645Z,100163.28
2023-01-30T17:50:25.254Z,100170.63
2023-01-30T17:52:57.155Z,100179.34
2023-01-30T17:55:28.677Z,100163.16
2023-01-30T17:58:00.665Z,100172.56
2023-01-30T18:00:32.178Z,100188.00
2023-01-30T18:03:04.185Z,100181.91
2023-01-30T18:05:35.719Z,100189.25
2023-01-30T18:08:07.528Z,100194.97
2023-01-30T18:10:39.034Z,100195.00
2023-01-30T18:13:10.758Z,100204.06
2023-01-30T18:15:42.263Z,100205.31
2023-01-30T18:18:16.130Z,100218.13
2023-01-30T18:20:48.361Z,100221.19
2023-01-30T18:23:20.373Z,100235.44
2023-01-30T18:25:51.892Z,100239.75
2023-01-30T18:28:23.861Z,100237.53
2023-01-30T18:30:55.481Z,100244.44
2023-01-30T18:33:27.254Z,100253.00
2023-01-30T18:35:58.777Z,100248.09
2023-01-30T18:38:30.849Z,100255.00
2023-01-30T18:41:02.356Z,100245.69
2023-01-30T18:43:34.209Z,100257.47
2023-01-30T18:46:05.880Z,100275.41
2023-01-30T18:48:38.000Z,100269.47
2023-01-30T18:51:09.555Z,100283.31
2023-01-30T18:53:41.244Z,100289.03
2023-01-30T18:56:12.764Z,100297.16
2023-01-30T18:58:50.032Z,100303.72
2023-01-30T19:01:21.624Z,100295.22
2023-01-30T19:03:53.342Z,100304.34
2023-01-30T19:06:24.898Z,100312.66
2023-01-30T19:08:56.793Z,100325.03
2023-01-30T19:11:47.069Z,100319.75
2023-01-30T19:14:18.962Z,100321.38
2023-01-30T19:16:51.329Z,100338.84
2023-01-30T19:19:22.895Z,100335.75
2023-01-30T19:21:55.142Z,100346.94
2023-01-30T19:24:27.277Z,100352.53
2023-01-30T19:26:58.815Z,100359.66
2023-01-30T19:29:30.653Z,100374.25
2023-01-30T19:32:02.281Z,100352.47
2023-01-30T19:34:34.572Z,100370.91
2023-01-30T19:37:07.049Z,100375.56
2023-01-30T19:39:38.569Z,100379.59
2023-01-30T19:42:10.456Z,100384.88
2023-01-30T19:44:42.770Z,100398.09
2023-01-30T19:47:14.634Z,100393.88
2023-01-30T19:49:46.143Z,100392.66
2023-01-30T19:52:17.956Z,100405.06
2023-01-30T19:54:49.525Z,100415.19
2023-01-30T19:57:21.134Z,100412.28
2023-01-30T19:59:52.643Z,100411.22
2023-01-30T20:02:24.475Z,100397.09
2023-01-30T20:04:56.157Z,100411.97
2023-01-30T20:07:27.984Z,100420.44
2023-01-30T20:09:59.491Z,100417.59
2023-01-30T20:12:32.170Z,100423.00
2023-01-30T20:15:04.785Z,100436.19
2023-01-30T20:17:36.654Z,100431.66
2023-01-30T20:20:08.237Z,100428.47
2023-01-30T20:22:40.863Z,100454.66
2023-01-30T20:25:12.605Z,100450.84
2023-01-30T20:27:45.824Z,100467.56
2023-01-30T20:30:19.623Z,100469.22
2023-01-30T20:32:51.739Z,100475.97
2023-01-30T20:35:23.261Z,100475.78
2023-01-30T20:37:55.196Z,100471.69
2023-01-30T20:40:26.720Z,100493.88
2023-01-30T20:42:58.674Z,100470.97
2023-01-30T20:45:30.194Z,100484.06
2023-01-30T20:48:02.156Z,100472.88
2023-01-30T20:50:33.684Z,100495.63
2023-01-30T20:53:05.783Z,100510.66
2023-01-30T20:55:37.341Z,100523.47
2023-01-30T20:58:08.848Z,100530.84
2023-01-30T21:00:40.359Z,100530.59
2023-01-30T21:03:11.882Z,100542.59
2023-01-30T21:05:43.411Z,100558.06
2023-01-30T21:08:15.267Z,100552.97
2023-01-30T21:10:47.192Z,100567.81
2023-01-30T21:13:18.755Z,100567.53
2023-01-30T21:15:50.267Z,100574.53
2023-01-30T21:18:22.093Z,100560.06
2023-01-30T21:20:53.643Z,100577.53
2023-01-30T21:23:25.535Z,100577.16
2023-01-30T21:25:57.453Z,100584.47
2023-01-30T21:28:30.490Z,100591.56
2023-01-30T21:31:02.122Z,100588.47
2023-01-30T21:33:34.065Z,100589.00
2023-01-30T21:36:05.658Z,100605.75
2023-01-30T21:38:56.137Z,100601.75
2023-01-30T21:41:46.114Z,100600.63
2023-01-30T21:44:18.015Z,100611.53
2023-01-30T21:46:49.529Z,100620.06
2023-01-30T21:49:21.371Z,100630.81
2023-01-30T21:51:52.882Z,100632.09
2023-01-30T21:54:24.460Z,100635.53
2023-01-30T21:56:55.985Z,100636.72
2023-01-30T21:59:27.811Z,100651.56
2023-01-30T22:01:59.405Z,100660.81
2023-01-30T22:04:31.371Z,100661.53
2023-01-30T22:07:04.708Z,100661.78
2023-01-30T22:09:37.738Z,100660.53
2023-01-30T22:12:09.673Z,100647.06
2023-01-30T22:14:41.594Z,100651.50
2023-01-30T22:17:13.110Z,100640.69
2023-01-30T22:19:45.198Z,100659.31
2023-01-30T22:22:16.788Z,100657.19
2023-01-30T22:24:48.668Z,100668.91
2023-01-30T22:27:20.222Z,100668.59
2023-01-30T22:29:51.819Z,100676.50
2023-01-30T22:32:23.360Z,100676.84
2023-01-30T22:34:55.343Z,100673.91
2023-01-30T22:37:26.860Z,100685.78
2023-01-30T22:39:58.690Z,100687.59
2023-01-30T22:42:30.192Z,100690.22
2023-01-30T22:45:02.206Z,100708.16
2023-01-30T22:47:33.772Z,100701.25
2023-01-30T22:50:05.659Z,100699.25
2023-01-30T22:52:37.239Z,100692.69
2023-01-30T22:55:08.988Z,100695.34
2023-01-30T22:57:40.572Z,100697.50
2023-01-30T23:00:12.133Z,100693.22
2023-01-30T23:02:43.730Z,100699.00
2023-01-30T23:05:15.605Z,100698.34
2023-01-30T23:07:47.105Z,100691.44
2023-01-30T23:10:18.964Z,100702.63
2023-01-30T23:13:20.078Z,100697.38
2023-01-30T23:15:51.603Z,100701.97
2023-01-30T23:18:41.901Z,100701.50
2023-01-30T23:21:13.492Z,100710.88
2023-01-30T23:23:45.393Z,100714.16
2023-01-30T23:26:16.956Z,100703.63
2023-01-30T23:28:48.786Z,100721.41
2023-01-30T23:31:20.514Z,100719.44
2023-01-30T23:33:52.503Z,100719.59
2023-01-30T23:36:24.056Z,100724.06
2023-01-30T23:38:55.969Z,100723.06
2023-01-30T23:41:27.503Z,100727.19
2023-01-30T23:43:59.423Z,100740.53
2023-01-30T23:46:31.214Z,100738.41
2023-01-30T23:49:03.066Z,100736.28
2023-01-30T23:51:35.403Z,100763.44
2023-01-30T23:54:07.225Z,100745.81
2023-01-30T23:56:38.874Z,100740.53
2023-01-30T23:59:10.665Z,100743.81
